createdAt,value
2018-08-18T00:00:32.618Z,80.31
2018-08-18T00:03:02.316Z,81.06
2018-08-18T00:05:31.956Z,80.69
2018-08-18T00:08:01.541Z,81.45
2018-08-18T00:10:31.378Z,81.08
2018-08-18T00:13:01.006Z,81.34
2018-08-18T00:15:30.707Z,81.59
2018-08-18T00:18:00.367Z,82.32
2018-08-18T00:20:30.088Z,81.98
2018-08-18T00:22:59.750Z,82.00
2018-08-18T00:25:29.432Z,82.37
2018-08-18T00:28:24.152Z,82.45
2018-08-18T00:30:54.319Z,82.74
2018-08-18T00:33:24.335Z,82.11
2018-08-18T00:35:53.910Z,82.55
2018-08-18T00:38:24.019Z,83.24
2018-08-18T00:40:54.618Z,83.52
2018-08-18T00:43:24.271Z,83.72
2018-08-18T00:45:54.055Z,83.42
2018-08-18T00:48:23.684Z,83.43
2018-08-18T00:50:53.418Z,83.33
2018-08-18T00:53:23.066Z,83.87
2018-08-18T00:55:52.774Z,83.88
2018-08-18T00:58:27.265Z,85.12
2018-08-18T01:01:02.506Z,84.87
2018-08-18T01:03:40.374Z,85.82
2018-08-18T01:06:19.854Z,85.09
2018-08-18T01:08:53.044Z,85.66
2018-08-18T01:11:22.754Z,85.79
2018-08-18T01:13:53.069Z,85.45
2018-08-18T01:16:22.581Z,85.09
2018-08-18T01:18:54.906Z,84.58
2018-08-18T01:21:25.538Z,85.62
2018-08-18T01:23:55.252Z,84.46
2018-08-18T01:26:24.900Z,84.90
2018-08-18T01:29:05.248Z,84.83
2018-08-18T01:31:34.886Z,84.32
2018-08-18T01:34:05.034Z,84.78
2018-08-18T01:36:34.633Z,84.85
2018-08-18T01:39:05.665Z,85.50
2018-08-18T01:41:35.535Z,84.95
2018-08-18T01:44:18.737Z,85.03
2018-08-18T01:46:49.486Z,85.30
2018-08-18T01:49:28.429Z,85.39
2018-08-18T01:52:00.108Z,86.87
2018-08-18T01:54:30.006Z,85.87
2018-08-18T01:57:06.639Z,86.06
2018-08-18T01:59:36.845Z,85.45
2018-08-18T02:02:27.910Z,85.53
2018-08-18T02:05:06.592Z,87.07
2018-08-18T02:07:36.196Z,87.26
2018-08-18T02:10:07.280Z,87.92
2018-08-18T02:12:36.844Z,86.71
2018-08-18T02:15:06.482Z,87.32
2018-08-18T02:17:37.226Z,88.13
2018-08-18T02:20:10.035Z,89.07
2018-08-18T02:22:39.685Z,89.59
2018-08-18T02:25:09.368Z,88.59
2018-08-18T02:27:38.947Z,88.53
2018-08-18T02:30:24.247Z,88.50
2018-08-18T02:32:53.885Z,88.74
2018-08-18T02:35:24.638Z,88.93
2018-08-18T02:37:54.283Z,88.53
2018-08-18T02:40:23.824Z,88.73
2018-08-18T02:42:53.421Z,87.91
2018-08-18T02:45:23.095Z,87.12
2018-08-18T02:48:10.507Z,86.74
2018-08-18T02:50:44.195Z,86.76
2018-08-18T02:53:30.181Z,86.44
2018-08-18T02:55:59.779Z,87.19
2018-08-18T02:58:29.509Z,87.08
2018-08-18T03:00:59.044Z,88.33
2018-08-18T03:03:28.623Z,89.00
2018-08-18T03:06:10.015Z,88.37
2018-08-18T03:08:39.602Z,90.23
2018-08-18T03:11:09.297Z,90.83
2018-08-18T03:13:38.847Z,92.03
2018-08-18T03:16:10.840Z,92.19
2018-08-18T03:18:47.682Z,91.83
2018-08-18T03:21:17.839Z,92.66
2018-08-18T03:24:04.369Z,92.29
2018-08-18T03:26:39.395Z,93.33
2018-08-18T03:29:09.324Z,92.63
2018-08-18T03:31:39.728Z,92.37
2018-08-18T03:34:09.792Z,92.54
2018-08-18T03:36:41.412Z,92.17
2018-08-18T03:39:22.617Z,92.67
2018-08-18T03:41:55.196Z,93.27
2018-08-18T03:44:24.864Z,92.95
2018-08-18T03:46:54.518Z,93.39
2018-08-18T03:49:24.179Z,93.29
2018-08-18T03:51:55.342Z,92.72
2018-08-18T03:54:24.931Z,93.02
2018-08-18T03:56:54.765Z,92.75
2018-08-18T03:59:24.828Z,91.05
2018-08-18T04:01:55.883Z,88.88
2018-08-18T04:04:27.094Z,88.02
2018-08-18T04:06:57.860Z,88.54
2018-08-18T04:09:30.730Z,88.17
2018-08-18T04:12:02.984Z,87.69
2018-08-18T04:14:37.658Z,86.57
2018-08-18T04:17:39.776Z,86.38
2018-08-18T04:20:09.468Z,86.63
2018-08-18T04:22:39.006Z,86.59
2018-08-18T04:25:08.758Z,85.69
2018-08-18T04:27:41.715Z,86.40
2018-08-18T04:30:14.337Z,86.04
2018-08-18T04:32:53.137Z,85.06
2018-08-18T04:35:27.197Z,84.27
2018-08-18T04:37:57.548Z,85.06
2018-08-18T04:40:27.437Z,84.84
2018-08-18T04:42:59.706Z,84.58
2018-08-18T04:45:29.330Z,84.87
2018-08-18T04:47:58.882Z,85.96
2018-08-18T04:50:28.560Z,85.80
2018-08-18T04:52:58.046Z,85.72
2018-08-18T04:55:27.559Z,86.68
2018-08-18T04:57:57.113Z,85.05
2018-08-18T05:00:28.843Z,83.75
2018-08-18T05:02:59.375Z,72.88
2018-08-18T05:05:30.319Z,73.12
2018-08-18T05:08:01.231Z,66.13
2018-08-18T05:10:30.991Z,66.37
2018-08-18T05:13:00.741Z,67.70
2018-08-18T05:15:30.404Z,67.80
2018-08-18T05:18:00.035Z,65.23
2018-08-18T05:20:31.001Z,59.82
2018-08-18T05:23:19.095Z,60.58
2018-08-18T05:25:50.591Z,64.85
2018-08-18T05:28:20.540Z,61.22
2018-08-18T05:30:53.163Z,63.63
2018-08-18T05:33:22.894Z,60.13
2018-08-18T05:35:52.519Z,61.62
2018-08-18T05:38:22.247Z,59.51
2018-08-18T05:40:51.822Z,59.88
2018-08-18T05:43:21.348Z,59.72
2018-08-18T05:45:50.959Z,59.08
2018-08-18T05:48:20.512Z,58.19
2018-08-18T05:50:50.076Z,51.10
2018-08-18T05:53:21.449Z,57.03
2018-08-18T05:55:51.233Z,59.25
2018-08-18T05:58:20.956Z,54.95
2018-08-18T06:00:55.504Z,57.70
2018-08-18T06:03:25.108Z,47.13
2018-08-18T06:05:54.793Z,50.89
2018-08-18T06:08:24.412Z,44.98
2018-08-18T06:10:54.169Z,43.35
2018-08-18T06:13:24.049Z,44.47
2018-08-18T06:16:09.496Z,42.42
2018-08-18T06:18:40.129Z,39.46
2018-08-18T06:21:09.826Z,46.89
2018-08-18T06:23:39.884Z,40.69
2018-08-18T06:26:09.829Z,46.10
2018-08-18T06:28:39.436Z,45.91
2018-08-18T06:31:09.145Z,43.99
2018-08-18T06:33:38.719Z,42.47
2018-08-18T06:36:08.311Z,40.20
2018-08-18T06:38:37.889Z,39.95
2018-08-18T06:41:07.945Z,37.76
2018-08-18T06:43:37.417Z,42.25
2018-08-18T06:46:07.018Z,41.17
2018-08-18T06:48:37.558Z,36.95
2018-08-18T06:51:07.922Z,37.86
2018-08-18T06:53:45.556Z,37.62
2018-08-18T06:56:15.349Z,41.04
2018-08-18T06:58:45.001Z,43.16
2018-08-18T07:01:14.719Z,36.66
2018-08-18T07:03:45.881Z,34.73
2018-08-18T07:06:16.891Z,34.74
2018-08-18T07:08:53.943Z,38.38
2018-08-18T07:11:23.552Z,44.17
2018-08-18T07:13:53.191Z,45.02
2018-08-18T07:16:22.812Z,40.78
2018-08-18T07:18:52.337Z,38.60
2018-08-18T07:21:22.092Z,39.86
2018-08-18T07:23:51.675Z,33.94
2018-08-18T07:26:21.288Z,34.26
2018-08-18T07:28:51.026Z,34.98
2018-08-18T07:31:20.532Z,44.01
2018-08-18T07:33:50.275Z,37.14
2018-08-18T07:36:20.053Z,36.34
2018-08-18T07:38:49.662Z,39.89
2018-08-18T07:41:20.211Z,40.78
2018-08-18T07:43:49.780Z,36.86
2018-08-18T07:46:19.600Z,43.87
2018-08-18T07:48:49.134Z,51.13
2018-08-18T07:51:18.848Z,53.90
2018-08-18T07:53:48.474Z,54.65
2018-08-18T07:56:18.177Z,59.30
2018-08-18T07:58:47.792Z,58.91
2018-08-18T08:01:17.392Z,59.85
2018-08-18T08:03:46.995Z,60.48
2018-08-18T08:06:16.671Z,58.64
2018-08-18T08:08:48.482Z,57.51
2018-08-18T08:11:18.193Z,56.48
2018-08-18T08:13:47.946Z,58.97
2018-08-18T08:16:17.703Z,58.95
2018-08-18T08:18:47.356Z,57.83
2018-08-18T08:21:17.148Z,58.37
2018-08-18T08:23:46.835Z,56.51
2018-08-18T08:26:16.392Z,57.66
2018-08-18T08:28:46.143Z,56.74
2018-08-18T08:31:15.780Z,56.40
2018-08-18T08:33:45.518Z,54.88
2018-08-18T08:36:16.943Z,54.82
2018-08-18T08:38:57.654Z,55.40
2018-08-18T08:41:29.699Z,56.17
2018-08-18T08:43:59.718Z,54.76
2018-08-18T08:46:29.749Z,53.88
2018-08-18T08:49:01.480Z,55.48
2018-08-18T08:51:34.253Z,54.63
2018-08-18T08:54:04.323Z,55.49
2018-08-18T08:56:38.916Z,53.89
2018-08-18T08:59:08.930Z,53.24
2018-08-18T09:01:38.728Z,52.43
2018-08-18T09:04:08.585Z,53.55
2018-08-18T09:06:42.433Z,51.26
2018-08-18T09:09:12.230Z,49.88
2018-08-18T09:11:41.933Z,49.87
2018-08-18T09:14:11.738Z,51.05
2018-08-18T09:16:41.720Z,50.05
2018-08-18T09:19:11.329Z,50.41
2018-08-18T09:21:46.358Z,48.22
2018-08-18T09:24:15.945Z,51.20
2018-08-18T09:26:50.749Z,50.02
2018-08-18T09:29:20.715Z,49.80
2018-08-18T09:31:50.476Z,49.56
2018-08-18T09:34:20.637Z,51.20
2018-08-18T09:36:50.390Z,50.40
2018-08-18T09:39:36.438Z,49.90
2018-08-18T09:42:10.460Z,50.06
2018-08-18T09:44:49.107Z,49.81
2018-08-18T09:47:18.908Z,47.71
2018-08-18T09:49:48.509Z,47.85
2018-08-18T09:52:20.148Z,49.69
2018-08-18T09:54:49.778Z,48.58
2018-08-18T09:57:19.633Z,48.95
2018-08-18T09:59:49.297Z,49.46
2018-08-18T10:02:19.076Z,48.04
2018-08-18T10:04:48.832Z,47.69
2018-08-18T10:07:19.238Z,46.23
2018-08-18T10:09:48.879Z,46.34
2018-08-18T10:12:18.543Z,46.34
2018-08-18T10:14:48.260Z,45.47
2018-08-18T10:17:17.900Z,44.33
2018-08-18T10:19:47.529Z,45.69
2018-08-18T10:22:17.176Z,44.57
2018-08-18T10:24:46.760Z,42.93
2018-08-18T10:27:18.142Z,41.91
2018-08-18T10:29:47.825Z,44.22
2018-08-18T10:32:17.466Z,46.89
2018-08-18T10:34:47.115Z,48.00
2018-08-18T10:37:16.681Z,44.38
2018-08-18T10:39:46.377Z,44.13
2018-08-18T10:42:20.797Z,42.56
2018-08-18T10:44:55.590Z,43.00
2018-08-18T10:47:25.476Z,41.41
2018-08-18T10:50:11.950Z,40.87
2018-08-18T10:52:56.240Z,41.15
2018-08-18T10:55:25.913Z,39.15
2018-08-18T10:58:02.820Z,37.93
2018-08-18T11:00:33.630Z,39.16
2018-08-18T11:03:04.662Z,38.63
2018-08-18T11:05:34.491Z,37.69
2018-08-18T11:08:10.028Z,37.04
2018-08-18T11:10:41.839Z,41.12
2018-08-18T11:13:11.512Z,41.67
2018-08-18T11:15:41.155Z,42.89
2018-08-18T11:18:10.810Z,42.94
2018-08-18T11:20:40.414Z,41.17
2018-08-18T11:23:12.996Z,42.06
2018-08-18T11:25:53.067Z,42.30
2018-08-18T11:28:23.609Z,42.38
2018-08-18T11:30:54.722Z,42.42
2018-08-18T11:33:39.078Z,41.05
2018-08-18T11:36:09.817Z,40.59
2018-08-18T11:38:39.831Z,41.11
2018-08-18T11:41:09.514Z,40.57
2018-08-18T11:43:50.037Z,40.78
2018-08-18T11:46:19.888Z,40.45
2018-08-18T11:48:49.619Z,41.40
2018-08-18T11:51:19.505Z,40.44
2018-08-18T11:54:00.501Z,41.63
2018-08-18T11:56:30.300Z,40.24
2018-08-18T11:59:13.135Z,41.08
2018-08-18T12:01:47.813Z,41.44
2018-08-18T12:04:18.337Z,40.88
2018-08-18T12:06:53.162Z,39.94
2018-08-18T12:09:23.026Z,41.24
2018-08-18T12:11:52.832Z,40.78
2018-08-18T12:14:22.499Z,40.13
2018-08-18T12:16:52.509Z,39.33
2018-08-18T12:19:22.265Z,39.94
2018-08-18T12:21:52.004Z,39.88
2018-08-18T12:24:22.352Z,38.44
2018-08-18T12:27:07.466Z,39.78
2018-08-18T12:29:37.371Z,39.82
2018-08-18T12:32:39.931Z,38.66
2018-08-18T12:35:09.602Z,40.51
2018-08-18T12:37:39.235Z,40.54
2018-08-18T12:40:08.961Z,40.53
2018-08-18T12:42:38.842Z,41.01
2018-08-18T12:45:08.522Z,38.47
2018-08-18T12:47:42.633Z,38.39
2018-08-18T12:50:13.874Z,37.46
2018-08-18T12:52:48.978Z,37.38
2018-08-18T12:55:20.380Z,38.06
2018-08-18T12:57:51.161Z,36.69
2018-08-18T13:00:20.794Z,37.45
2018-08-18T13:02:54.753Z,37.38
2018-08-18T13:05:26.326Z,38.53
2018-08-18T13:08:02.968Z,37.21
2018-08-18T13:10:32.598Z,37.61
2018-08-18T13:13:02.228Z,36.89
2018-08-18T13:15:31.827Z,36.67
2018-08-18T13:18:01.418Z,37.88
2018-08-18T13:20:31.316Z,37.61
2018-08-18T13:23:00.971Z,37.83
2018-08-18T13:25:31.340Z,36.79
2018-08-18T13:28:00.993Z,36.17
2018-08-18T13:30:30.634Z,36.00
2018-08-18T13:33:00.469Z,36.70
2018-08-18T13:35:30.114Z,36.02
2018-08-18T13:37:59.789Z,36.49
2018-08-18T13:40:29.676Z,36.57
2018-08-18T13:42:59.318Z,36.91
2018-08-18T13:45:42.410Z,37.77
2018-08-18T13:48:12.983Z,37.88
2018-08-18T13:50:42.733Z,37.29
2018-08-18T13:53:12.320Z,36.69
2018-08-18T13:55:42.591Z,34.76
2018-08-18T13:58:13.142Z,35.13
2018-08-18T14:00:42.703Z,35.10
2018-08-18T14:03:29.092Z,35.69
2018-08-18T14:05:58.727Z,35.18
2018-08-18T14:08:28.356Z,33.97
2018-08-18T14:10:58.076Z,34.63
2018-08-18T14:13:29.126Z,35.69
2018-08-18T14:15:59.005Z,35.94
2018-08-18T14:18:28.689Z,34.65
2018-08-18T14:21:06.722Z,35.47
2018-08-18T14:23:36.429Z,35.66
2018-08-18T14:26:06.227Z,35.27
2018-08-18T14:28:35.941Z,35.68
2018-08-18T14:31:05.654Z,34.71
2018-08-18T14:33:35.404Z,35.00
2018-08-18T14:36:10.993Z,35.21
2018-08-18T14:38:42.053Z,34.35
2018-08-18T14:41:12.273Z,34.71
2018-08-18T14:43:42.744Z,34.30
2018-08-18T14:46:15.353Z,35.13
2018-08-18T14:48:44.882Z,34.63
2018-08-18T14:51:14.488Z,34.38
2018-08-18T14:53:44.074Z,35.22
2018-08-18T14:56:13.689Z,35.21
2018-08-18T14:58:45.410Z,34.75
2018-08-18T15:01:15.757Z,34.81
2018-08-18T15:03:45.443Z,34.51
2018-08-18T15:06:15.064Z,33.76
2018-08-18T15:08:44.827Z,34.16
2018-08-18T15:11:14.399Z,35.21
2018-08-18T15:13:43.991Z,35.18
2018-08-18T15:16:14.453Z,35.26
2018-08-18T15:18:44.056Z,33.66
2018-08-18T15:21:13.762Z,35.06
2018-08-18T15:23:43.451Z,34.59
2018-08-18T15:26:13.110Z,35.03
2018-08-18T15:28:42.793Z,34.21
2018-08-18T15:31:12.412Z,33.80
2018-08-18T15:33:42.044Z,34.76
2018-08-18T15:36:28.497Z,34.07
2018-08-18T15:38:58.192Z,33.69
2018-08-18T15:41:27.826Z,34.18
2018-08-18T15:43:57.468Z,34.55
2018-08-18T15:46:27.177Z,34.26
2018-08-18T15:48:57.077Z,33.76
2018-08-18T15:51:27.322Z,34.87
2018-08-18T15:53:59.046Z,35.61
2018-08-18T15:56:29.811Z,35.95
2018-08-18T15:59:00.276Z,34.05
2018-08-18T16:01:32.120Z,34.24
2018-08-18T16:04:03.170Z,34.42
2018-08-18T16:06:32.815Z,36.26
2018-08-18T16:09:02.558Z,36.05
2018-08-18T16:11:32.217Z,36.61
2018-08-18T16:14:01.933Z,36.04
2018-08-18T16:16:31.636Z,36.13
2018-08-18T16:19:06.415Z,35.82
2018-08-18T16:21:36.088Z,35.22
2018-08-18T16:24:05.895Z,36.22
2018-08-18T16:26:35.578Z,36.52
2018-08-18T16:29:05.156Z,36.08
2018-08-18T16:31:34.777Z,36.10
2018-08-18T16:34:04.452Z,35.34
2018-08-18T16:36:39.465Z,36.53
2018-08-18T16:39:09.776Z,37.10
2018-08-18T16:41:39.334Z,36.99
2018-08-18T16:44:09.096Z,37.14
2018-08-18T16:46:38.684Z,36.92
2018-08-18T16:49:08.390Z,36.68
2018-08-18T16:51:38.463Z,36.58
2018-08-18T16:54:20.951Z,36.89
2018-08-18T16:56:50.615Z,37.91
2018-08-18T16:59:20.357Z,37.33
2018-08-18T17:01:50.109Z,38.20
2018-08-18T17:04:28.907Z,37.81
2018-08-18T17:06:58.661Z,38.72
2018-08-18T17:09:46.641Z,38.47
2018-08-18T17:12:23.842Z,38.33
2018-08-18T17:14:54.108Z,38.05
2018-08-18T17:17:25.729Z,39.33
2018-08-18T17:19:55.397Z,38.66
2018-08-18T17:22:25.089Z,39.60
2018-08-18T17:24:54.896Z,39.40
2018-08-18T17:27:25.097Z,39.95
2018-08-18T17:29:54.732Z,39.60
2018-08-18T17:32:26.983Z,39.73
2018-08-18T17:34:56.677Z,39.76
2018-08-18T17:37:26.470Z,40.66
2018-08-18T17:39:56.199Z,40.30
2018-08-18T17:42:25.884Z,39.95
2018-08-18T17:44:55.618Z,39.71
2018-08-18T17:47:25.419Z,41.09
2018-08-18T17:49:56.063Z,40.54
2018-08-18T17:52:26.536Z,41.28
2018-08-18T17:55:10.425Z,40.91
2018-08-18T17:57:40.319Z,40.67
2018-08-18T18:00:17.296Z,41.34
2018-08-18T18:02:53.506Z,41.39
2018-08-18T18:05:30.445Z,41.27
2018-08-18T18:08:05.316Z,42.30
2018-08-18T18:10:37.821Z,41.96
2018-08-18T18:13:17.248Z,42.97
2018-08-18T18:15:48.386Z,43.12
2018-08-18T18:18:20.058Z,43.43
2018-08-18T18:20:51.218Z,43.05
2018-08-18T18:23:21.390Z,43.51
2018-08-18T18:25:51.161Z,44.53
2018-08-18T18:28:20.970Z,43.92
2018-08-18T18:30:53.844Z,45.23
2018-08-18T18:33:23.726Z,44.79
2018-08-18T18:35:53.431Z,44.90
2018-08-18T18:38:23.223Z,45.06
2018-08-18T18:40:52.963Z,46.02
2018-08-18T18:43:22.820Z,45.30
2018-08-18T18:45:53.655Z,46.24
2018-08-18T18:48:23.354Z,45.96
2018-08-18T18:50:53.022Z,46.05
2018-08-18T18:53:22.813Z,46.46
2018-08-18T18:55:54.361Z,46.88
2018-08-18T18:58:24.295Z,46.73
2018-08-18T19:00:57.228Z,47.19
2018-08-18T19:03:26.895Z,46.59
2018-08-18T19:05:56.656Z,47.83
2018-08-18T19:08:26.412Z,47.44
2018-08-18T19:10:56.243Z,47.45
2018-08-18T19:13:28.074Z,48.12
2018-08-18T19:15:58.161Z,49.66
2018-08-18T19:18:27.804Z,50.77
2018-08-18T19:20:57.643Z,51.48
2018-08-18T19:23:27.418Z,52.30
2018-08-18T19:25:57.314Z,51.94
2018-08-18T19:28:27.017Z,52.92
2018-08-18T19:30:56.583Z,53.10
2018-08-18T19:33:26.578Z,53.33
2018-08-18T19:35:56.372Z,53.40
2018-08-18T19:38:26.124Z,54.59
2018-08-18T19:40:56.582Z,55.27
2018-08-18T19:43:27.568Z,56.02
2018-08-18T19:45:57.646Z,56.04
2018-08-18T19:48:28.426Z,56.54
2018-08-18T19:51:03.025Z,56.80
2018-08-18T19:53:34.044Z,57.69
2018-08-18T19:56:04.333Z,58.58
2018-08-18T19:58:34.154Z,59.00
2018-08-18T20:01:03.958Z,59.58
2018-08-18T20:03:34.644Z,60.25
2018-08-18T20:06:08.542Z,60.58
2018-08-18T20:08:38.298Z,60.40
2018-08-18T20:11:08.139Z,61.49
2018-08-18T20:13:38.068Z,61.40
2018-08-18T20:16:07.998Z,61.60
2018-08-18T20:18:37.793Z,62.93
2018-08-18T20:21:07.464Z,61.66
2018-08-18T20:23:37.234Z,62.30
2018-08-18T20:26:06.936Z,62.79
2018-08-18T20:28:36.667Z,63.01
2018-08-18T20:31:06.380Z,63.38
2018-08-18T20:33:36.124Z,64.16
2018-08-18T20:36:05.894Z,62.99
2018-08-18T20:38:46.308Z,63.97
2018-08-18T20:41:16.168Z,63.68
2018-08-18T20:43:48.679Z,63.63
2018-08-18T20:46:18.536Z,63.55
2018-08-18T20:48:48.215Z,64.77
2018-08-18T20:51:22.064Z,65.31
2018-08-18T20:53:51.793Z,65.96
2018-08-18T20:56:21.994Z,66.35
2018-08-18T20:58:51.727Z,66.36
2018-08-18T21:01:21.729Z,66.01
2018-08-18T21:03:52.397Z,66.45
2018-08-18T21:06:22.054Z,66.84
2018-08-18T21:08:51.867Z,67.11
2018-08-18T21:11:21.603Z,66.98
2018-08-18T21:13:52.231Z,67.89
2018-08-18T21:16:23.548Z,67.13
2018-08-18T21:18:53.142Z,67.80
2018-08-18T21:21:29.348Z,68.27
2018-08-18T21:23:59.775Z,67.70
2018-08-18T21:26:30.252Z,68.58
2018-08-18T21:29:00.091Z,68.66
2018-08-18T21:31:36.215Z,67.80
2018-08-18T21:34:07.102Z,68.15
2018-08-18T21:36:37.389Z,68.92
2018-08-18T21:39:09.668Z,68.65
2018-08-18T21:41:41.451Z,70.33
2018-08-18T21:44:13.505Z,69.23
2018-08-18T21:46:43.749Z,69.50
2018-08-18T21:49:14.356Z,69.70
2018-08-18T21:51:44.452Z,70.05
2018-08-18T21:54:14.221Z,69.53
2018-08-18T21:56:44.188Z,69.50
2018-08-18T21:59:14.649Z,70.21
2018-08-18T22:01:44.318Z,70.19
2018-08-18T22:04:20.874Z,70.41
2018-08-18T22:06:50.846Z,70.77
2018-08-18T22:09:28.434Z,70.04
2018-08-18T22:11:58.103Z,70.71
2018-08-18T22:14:27.925Z,71.48
2018-08-18T22:16:58.544Z,71.58
2018-08-18T22:19:29.863Z,71.87
2018-08-18T22:22:05.786Z,71.76
2018-08-18T22:24:35.756Z,72.22
2018-08-18T22:27:05.651Z,72.63
2018-08-18T22:29:35.462Z,72.35
2018-08-18T22:32:09.344Z,73.60
2018-08-18T22:34:38.969Z,73.45
2018-08-18T22:37:15.017Z,72.59
2018-08-18T22:39:44.682Z,73.39
2018-08-18T22:42:14.356Z,73.14
2018-08-18T22:44:50.694Z,73.23
2018-08-18T22:47:20.411Z,73.83
2018-08-18T22:49:52.033Z,73.24
2018-08-18T22:52:21.972Z,73.04
2018-08-18T22:54:51.908Z,74.13
2018-08-18T22:57:22.006Z,72.98
2018-08-18T22:59:52.908Z,73.77
2018-08-18T23:02:22.663Z,74.83
2018-08-18T23:04:52.448Z,74.16
2018-08-18T23:07:22.173Z,73.10
2018-08-18T23:09:51.966Z,73.60
2018-08-18T23:12:21.934Z,73.71
2018-08-18T23:14:51.535Z,74.94
2018-08-18T23:17:21.279Z,75.37
2018-08-18T23:19:51.016Z,75.56
2018-08-18T23:22:41.526Z,76.46
2018-08-18T23:25:11.159Z,77.05
2018-08-18T23:27:40.824Z,77.20
2018-08-18T23:30:10.872Z,77.72
2018-08-18T23:32:40.911Z,77.98
2018-08-18T23:35:10.769Z,77.94
2018-08-18T23:37:40.480Z,77.10
2018-08-18T23:40:10.310Z,76.89
2018-08-18T23:42:40.214Z,76.40
2018-08-18T23:45:09.975Z,77.42
2018-08-18T23:47:40.004Z,77.72
2018-08-18T23:50:09.985Z,77.64
2018-08-18T23:52:55.419Z,77.62
2018-08-18T23:55:25.295Z,76.86
2018-08-18T23:57:55.262Z,76.80
